sensor_id;sensor_type;location;lat;lon;timestamp;P1;durP1;ratioP1;P2;durP2;ratioP2
37787;SDS011;23627;53.302;-6.362;2023-11-21T00:02:13;9.15;;;1.65;;
37787;SDS011;23627;53.302;-6.362;2023-11-21T00:04:39;8.32;;;1.65;;
37787;SDS011;23627;53.302;-6.362;2023-11-21T00:07:05;7.57;;;1.50;;
37787;SDS011;23627;53.302;-6.362;2023-11-21T00:09:31;10.63;;;1.70;;
37787;SDS011;23627;53.302;-6.362;2023-11-21T00:11:58;10.48;;;1.65;;
37787;SDS011;23627;53.302;-6.362;2023-11-21T00:14:27;9.20;;;1.58;;
37787;SDS011;23627;53.302;-6.362;2023-11-21T00:16:53;8.23;;;1.50;;
37787;SDS011;23627;53.302;-6.362;2023-11-21T00:19:19;11.52;;;1.60;;
37787;SDS011;23627;53.302;-6.362;2023-11-21T00:21:44;10.20;;;1.85;;
37787;SDS011;23627;53.302;-6.362;2023-11-21T00:24:11;8.50;;;1.50;;
37787;SDS011;23627;53.302;-6.362;2023-11-21T00:26:41;6.45;;;1.67;;
37787;SDS011;23627;53.302;-6.362;2023-11-21T00:29:07;7.43;;;1.50;;
37787;SDS011;23627;53.302;-6.362;2023-11-21T00:31:33;7.63;;;1.55;;
37787;SDS011;23627;53.302;-6.362;2023-11-21T00:34:02;6.93;;;1.40;;
37787;SDS011;23627;53.302;-6.362;2023-11-21T00:36:34;10.23;;;1.50;;
37787;SDS011;23627;53.302;-6.362;2023-11-21T00:39:00;9.90;;;1.30;;
37787;SDS011;23627;53.302;-6.362;2023-11-21T00:41:27;12.02;;;1.88;;
37787;SDS011;23627;53.302;-6.362;2023-11-21T00:43:53;6.38;;;1.20;;
37787;SDS011;23627;53.302;-6.362;2023-11-21T00:46:20;8.95;;;1.60;;
37787;SDS011;23627;53.302;-6.362;2023-11-21T00:48:46;5.22;;;1.17;;
37787;SDS011;23627;53.302;-6.362;2023-11-21T00:51:11;8.63;;;1.50;;
37787;SDS011;23627;53.302;-6.362;2023-11-21T00:53:37;7.00;;;1.50;;
37787;SDS011;23627;53.302;-6.362;2023-11-21T00:56:04;6.05;;;1.30;;
37787;SDS011;23627;53.302;-6.362;2023-11-21T00:58:30;8.38;;;1.48;;
37787;SDS011;23627;53.302;-6.362;2023-11-21T01:00:56;7.22;;;1.27;;
37787;SDS011;23627;53.302;-6.362;2023-11-21T01:03:22;6.82;;;1.35;;
37787;SDS011;23627;53.302;-6.362;2023-11-21T01:05:48;8.00;;;1.08;;
37787;SDS011;23627;53.302;-6.362;2023-11-21T01:08:15;6.30;;;1.38;;
37787;SDS011;23627;53.302;-6.362;2023-11-21T01:10:41;7.53;;;1.65;;
37787;SDS011;23627;53.302;-6.362;2023-11-21T01:13:07;9.73;;;1.38;;
37787;SDS011;23627;53.302;-6.362;2023-11-21T01:15:36;7.82;;;1.20;;
37787;SDS011;23627;53.302;-6.362;2023-11-21T01:18:01;10.10;;;1.48;;
37787;SDS011;23627;53.302;-6.362;2023-11-21T01:20:28;8.05;;;1.55;;
37787;SDS011;23627;53.302;-6.362;2023-11-21T01:22:54;9.00;;;1.52;;
37787;SDS011;23627;53.302;-6.362;2023-11-21T01:25:20;6.60;;;1.30;;
37787;SDS011;23627;53.302;-6.362;2023-11-21T01:27:46;7.57;;;1.73;;
37787;SDS011;23627;53.302;-6.362;2023-11-21T01:30:12;6.22;;;1.23;;
37787;SDS011;23627;53.302;-6.362;2023-11-21T01:32:38;8.23;;;1.30;;
37787;SDS011;23627;53.302;-6.362;2023-11-21T01:35:04;4.80;;;1.20;;
37787;SDS011;23627;53.302;-6.362;2023-11-21T01:37:31;7.15;;;1.33;;
37787;SDS011;23627;53.302;-6.362;2023-11-21T01:39:58;7.00;;;1.50;;
37787;SDS011;23627;53.302;-6.362;2023-11-21T01:42:26;9.00;;;1.55;;
37787;SDS011;23627;53.302;-6.362;2023-11-21T01:44:52;7.95;;;1.30;;
37787;SDS011;23627;53.302;-6.362;2023-11-21T01:47:19;11.13;;;1.67;;
37787;SDS011;23627;53.302;-6.362;2023-11-21T01:49:46;6.80;;;1.25;;
37787;SDS011;23627;53.302;-6.362;2023-11-21T01:52:13;9.13;;;1.60;;
37787;SDS011;23627;53.302;-6.362;2023-11-21T01:54:40;6.03;;;1.25;;
37787;SDS011;23627;53.302;-6.362;2023-11-21T01:57:07;8.85;;;1.50;;
37787;SDS011;23627;53.302;-6.362;2023-11-21T01:59:36;7.80;;;1.20;;
37787;SDS011;23627;53.302;-6.362;2023-11-21T02:02:03;10.35;;;1.30;;
37787;SDS011;23627;53.302;-6.362;2023-11-21T02:04:31;5.43;;;1.17;;
37787;SDS011;23627;53.302;-6.362;2023-11-21T02:06:58;5.13;;;1.17;;
37787;SDS011;23627;53.302;-6.362;2023-11-21T02:09:27;6.75;;;1.38;;
37787;SDS011;23627;53.302;-6.362;2023-11-21T02:11:58;6.03;;;1.13;;
37787;SDS011;23627;53.302;-6.362;2023-11-21T02:14:24;4.32;;;1.00;;
37787;SDS011;23627;53.302;-6.362;2023-11-21T02:16:52;6.43;;;1.17;;
37787;SDS011;23627;53.302;-6.362;2023-11-21T02:19:19;5.47;;;1.17;;
37787;SDS011;23627;53.302;-6.362;2023-11-21T02:21:49;5.70;;;1.23;;
37787;SDS011;23627;53.302;-6.362;2023-11-21T02:24:20;7.53;;;1.00;;
37787;SDS011;23627;53.302;-6.362;2023-11-21T02:26:49;3.28;;;1.00;;
37787;SDS011;23627;53.302;-6.362;2023-11-21T02:29:21;6.72;;;1.35;;
37787;SDS011;23627;53.302;-6.362;2023-11-21T02:35:18;6.88;;;1.30;;
37787;SDS011;23627;53.302;-6.362;2023-11-21T02:37:46;6.32;;;1.27;;
37787;SDS011;23627;53.302;-6.362;2023-11-21T02:40:12;8.77;;;1.30;;
37787;SDS011;23627;53.302;-6.362;2023-11-21T02:42:49;6.75;;;1.33;;
37787;SDS011;23627;53.302;-6.362;2023-11-21T02:45:24;8.00;;;1.10;;
37787;SDS011;23627;53.302;-6.362;2023-11-21T02:47:51;6.47;;;1.40;;
37787;SDS011;23627;53.302;-6.362;2023-11-21T02:50:21;6.93;;;1.25;;
37787;SDS011;23627;53.302;-6.362;2023-11-21T02:52:49;4.22;;;1.00;;
37787;SDS011;23627;53.302;-6.362;2023-11-21T02:55:37;5.93;;;1.10;;
37787;SDS011;23627;53.302;-6.362;2023-11-21T02:58:17;8.70;;;1.33;;
37787;SDS011;23627;53.302;-6.362;2023-11-21T03:01:43;5.95;;;1.20;;
37787;SDS011;23627;53.302;-6.362;2023-11-21T03:04:48;5.88;;;1.15;;
37787;SDS011;23627;53.302;-6.362;2023-11-21T03:07:16;7.38;;;1.38;;
37787;SDS011;23627;53.302;-6.362;2023-11-21T03:09:50;5.60;;;0.98;;
37787;SDS011;23627;53.302;-6.362;2023-11-21T03:12:22;5.43;;;1.30;;
37787;SDS011;23627;53.302;-6.362;2023-11-21T03:14:49;6.43;;;1.55;;
37787;SDS011;23627;53.302;-6.362;2023-11-21T03:17:20;5.38;;;0.93;;
37787;SDS011;23627;53.302;-6.362;2023-11-21T03:19:54;5.18;;;1.08;;
37787;SDS011;23627;53.302;-6.362;2023-11-21T03:22:21;5.72;;;1.10;;
37787;SDS011;23627;53.302;-6.362;2023-11-21T03:24:47;7.45;;;1.25;;
37787;SDS011;23627;53.302;-6.362;2023-11-21T03:27:12;6.13;;;0.95;;
37787;SDS011;23627;53.302;-6.362;2023-11-21T03:32:32;5.13;;;1.00;;
37787;SDS011;23627;53.302;-6.362;2023-11-21T03:35:00;4.28;;;1.00;;
37787;SDS011;23627;53.302;-6.362;2023-11-21T03:37:28;6.38;;;1.40;;
37787;SDS011;23627;53.302;-6.362;2023-11-21T03:39:57;8.82;;;1.60;;
37787;SDS011;23627;53.302;-6.362;2023-11-21T03:42:27;4.97;;;1.00;;
37787;SDS011;23627;53.302;-6.362;2023-11-21T03:44:59;5.82;;;1.48;;
37787;SDS011;23627;53.302;-6.362;2023-11-21T03:47:33;5.32;;;0.93;;
37787;SDS011;23627;53.302;-6.362;2023-11-21T03:50:07;3.67;;;0.90;;
37787;SDS011;23627;53.302;-6.362;2023-11-21T03:55:38;6.43;;;0.93;;
37787;SDS011;23627;53.302;-6.362;2023-11-21T03:58:09;5.60;;;0.93;;
37787;SDS011;23627;53.302;-6.362;2023-11-21T04:00:35;4.88;;;1.10;;
37787;SDS011;23627;53.302;-6.362;2023-11-21T04:03:01;6.53;;;1.35;;
37787;SDS011;23627;53.302;-6.362;2023-11-21T04:05:32;4.55;;;1.00;;
37787;SDS011;23627;53.302;-6.362;2023-11-21T04:07:58;6.22;;;0.88;;
37787;SDS011;23627;53.302;-6.362;2023-11-21T04:10:24;4.28;;;0.90;;
37787;SDS011;23627;53.302;-6.362;2023-11-21T04:12:50;5.65;;;1.20;;
37787;SDS011;23627;53.302;-6.362;2023-11-21T04:15:16;6.28;;;1.20;;
37787;SDS011;23627;53.302;-6.362;2023-11-21T04:17:42;6.25;;;0.95;;
37787;SDS011;23627;53.302;-6.362;2023-11-21T04:21:08;5.68;;;0.98;;
37787;SDS011;23627;53.302;-6.362;2023-11-21T04:23:39;6.88;;;1.05;;
37787;SDS011;23627;53.302;-6.362;2023-11-21T04:26:05;6.88;;;1.25;;
37787;SDS011;23627;53.302;-6.362;2023-11-21T04:28:31;5.20;;;1.10;;
37787;SDS011;23627;53.302;-6.362;2023-11-21T04:30:57;7.72;;;1.13;;
37787;SDS011;23627;53.302;-6.362;2023-11-21T04:33:27;8.30;;;1.20;;
37787;SDS011;23627;53.302;-6.362;2023-11-21T04:35:54;5.35;;;1.00;;
37787;SDS011;23627;53.302;-6.362;2023-11-21T04:38:21;4.45;;;1.00;;
37787;SDS011;23627;53.302;-6.362;2023-11-21T04:40:49;6.93;;;1.20;;
37787;SDS011;23627;53.302;-6.362;2023-11-21T04:43:15;3.90;;;0.80;;
37787;SDS011;23627;53.302;-6.362;2023-11-21T04:45:42;6.45;;;0.95;;
37787;SDS011;23627;53.302;-6.362;2023-11-21T04:48:11;5.35;;;1.20;;
37787;SDS011;23627;53.302;-6.362;2023-11-21T04:50:39;4.85;;;1.10;;
37787;SDS011;23627;53.302;-6.362;2023-11-21T04:53:06;6.85;;;0.95;;
37787;SDS011;23627;53.302;-6.362;2023-11-21T04:55:39;7.88;;;1.20;;
37787;SDS011;23627;53.302;-6.362;2023-11-21T04:58:13;6.93;;;1.10;;
37787;SDS011;23627;53.302;-6.362;2023-11-21T05:00:46;6.35;;;1.00;;
37787;SDS011;23627;53.302;-6.362;2023-11-21T05:03:37;6.88;;;0.82;;
37787;SDS011;23627;53.302;-6.362;2023-11-21T05:11:27;5.93;;;0.80;;
37787;SDS011;23627;53.302;-6.362;2023-11-21T05:13:58;6.40;;;0.90;;
37787;SDS011;23627;53.302;-6.362;2023-11-21T05:16:26;8.35;;;0.93;;
37787;SDS011;23627;53.302;-6.362;2023-11-21T05:18:55;6.05;;;1.17;;
37787;SDS011;23627;53.302;-6.362;2023-11-21T05:21:26;7.85;;;1.30;;
37787;SDS011;23627;53.302;-6.362;2023-11-21T05:23:56;4.95;;;0.90;;
37787;SDS011;23627;53.302;-6.362;2023-11-21T05:26:22;4.35;;;0.85;;
37787;SDS011;23627;53.302;-6.362;2023-11-21T05:28:48;8.00;;;1.30;;
37787;SDS011;23627;53.302;-6.362;2023-11-21T05:31:13;3.55;;;0.60;;
37787;SDS011;23627;53.302;-6.362;2023-11-21T05:33:40;6.97;;;1.02;;
37787;SDS011;23627;53.302;-6.362;2023-11-21T05:36:09;5.22;;;1.00;;
37787;SDS011;23627;53.302;-6.362;2023-11-21T05:38:35;4.43;;;1.10;;
37787;SDS011;23627;53.302;-6.362;2023-11-21T05:41:04;10.20;;;1.35;;
37787;SDS011;23627;53.302;-6.362;2023-11-21T05:44:10;6.10;;;0.80;;
37787;SDS011;23627;53.302;-6.362;2023-11-21T05:46:39;7.38;;;1.13;;
37787;SDS011;23627;53.302;-6.362;2023-11-21T05:49:16;7.22;;;0.80;;
37787;SDS011;23627;53.302;-6.362;2023-11-21T05:52:15;4.82;;;0.68;;
37787;SDS011;23627;53.302;-6.362;2023-11-21T05:54:41;8.05;;;1.63;;
37787;SDS011;23627;53.302;-6.362;2023-11-21T05:57:06;6.80;;;1.13;;
37787;SDS011;23627;53.302;-6.362;2023-11-21T05:59:33;9.40;;;1.13;;
37787;SDS011;23627;53.302;-6.362;2023-11-21T06:01:59;6.95;;;0.80;;
37787;SDS011;23627;53.302;-6.362;2023-11-21T06:04:27;7.82;;;1.38;;
37787;SDS011;23627;53.302;-6.362;2023-11-21T06:06:53;5.05;;;0.90;;
37787;SDS011;23627;53.302;-6.362;2023-11-21T06:09:21;5.22;;;1.02;;
37787;SDS011;23627;53.302;-6.362;2023-11-21T06:11:53;6.40;;;1.17;;
37787;SDS011;23627;53.302;-6.362;2023-11-21T06:14:20;5.65;;;1.10;;
37787;SDS011;23627;53.302;-6.362;2023-11-21T06:16:48;4.50;;;0.93;;
37787;SDS011;23627;53.302;-6.362;2023-11-21T06:19:16;4.25;;;1.00;;
37787;SDS011;23627;53.302;-6.362;2023-11-21T06:21:45;6.10;;;1.10;;
37787;SDS011;23627;53.302;-6.362;2023-11-21T06:24:12;8.27;;;1.30;;
37787;SDS011;23627;53.302;-6.362;2023-11-21T06:26:43;9.02;;;1.00;;
37787;SDS011;23627;53.302;-6.362;2023-11-21T06:29:15;4.45;;;1.10;;
37787;SDS011;23627;53.302;-6.362;2023-11-21T06:35:03;5.28;;;0.90;;
37787;SDS011;23627;53.302;-6.362;2023-11-21T06:37:30;4.65;;;0.70;;
37787;SDS011;23627;53.302;-6.362;2023-11-21T06:40:03;7.00;;;1.00;;
37787;SDS011;23627;53.302;-6.362;2023-11-21T06:42:29;4.70;;;1.20;;
37787;SDS011;23627;53.302;-6.362;2023-11-21T06:44:56;4.63;;;0.90;;
37787;SDS011;23627;53.302;-6.362;2023-11-21T06:47:32;8.82;;;1.02;;
37787;SDS011;23627;53.302;-6.362;2023-11-21T06:52:34;3.97;;;0.90;;
37787;SDS011;23627;53.302;-6.362;2023-11-21T06:55:00;8.65;;;1.30;;
37787;SDS011;23627;53.302;-6.362;2023-11-21T06:57:26;6.03;;;0.82;;
37787;SDS011;23627;53.302;-6.362;2023-11-21T06:59:52;7.80;;;0.98;;
37787;SDS011;23627;53.302;-6.362;2023-11-21T07:02:18;6.07;;;1.02;;
37787;SDS011;23627;53.302;-6.362;2023-11-21T07:04:45;6.65;;;1.05;;
37787;SDS011;23627;53.302;-6.362;2023-11-21T07:07:11;7.07;;;1.05;;
37787;SDS011;23627;53.302;-6.362;2023-11-21T07:09:39;7.13;;;1.08;;
37787;SDS011;23627;53.302;-6.362;2023-11-21T07:14:39;5.43;;;1.00;;
37787;SDS011;23627;53.302;-6.362;2023-11-21T07:17:11;5.07;;;1.08;;
37787;SDS011;23627;53.302;-6.362;2023-11-21T07:19:38;6.07;;;1.63;;
37787;SDS011;23627;53.302;-6.362;2023-11-21T07:22:04;8.05;;;1.08;;
37787;SDS011;23627;53.302;-6.362;2023-11-21T07:24:32;4.97;;;0.95;;
37787;SDS011;23627;53.302;-6.362;2023-11-21T07:27:08;4.45;;;0.90;;
37787;SDS011;23627;53.302;-6.362;2023-11-21T07:29:35;6.78;;;1.23;;
37787;SDS011;23627;53.302;-6.362;2023-11-21T07:32:03;7.00;;;1.00;;
37787;SDS011;23627;53.302;-6.362;2023-11-21T07:34:33;3.70;;;0.98;;
37787;SDS011;23627;53.302;-6.362;2023-11-21T07:37:01;2.97;;;0.90;;
37787;SDS011;23627;53.302;-6.362;2023-11-21T07:39:29;4.40;;;1.08;;
37787;SDS011;23627;53.302;-6.362;2023-11-21T07:41:57;6.25;;;1.10;;
37787;SDS011;23627;53.302;-6.362;2023-11-21T07:48:42;6.93;;;1.10;;
37787;SDS011;23627;53.302;-6.362;2023-11-21T07:51:09;6.00;;;1.10;;
37787;SDS011;23627;53.302;-6.362;2023-11-21T07:53:35;5.93;;;1.23;;
37787;SDS011;23627;53.302;-6.362;2023-11-21T07:56:07;5.88;;;0.93;;
37787;SDS011;23627;53.302;-6.362;2023-11-21T07:58:34;4.55;;;0.95;;
37787;SDS011;23627;53.302;-6.362;2023-11-21T08:01:05;8.35;;;1.10;;
37787;SDS011;23627;53.302;-6.362;2023-11-21T08:03:33;4.18;;;1.02;;
37787;SDS011;23627;53.302;-6.362;2023-11-21T08:06:01;4.20;;;0.95;;
37787;SDS011;23627;53.302;-6.362;2023-11-21T08:08:39;7.82;;;1.23;;
37787;SDS011;23627;53.302;-6.362;2023-11-21T08:11:05;8.13;;;1.65;;
37787;SDS011;23627;53.302;-6.362;2023-11-21T08:13:33;5.10;;;1.08;;
37787;SDS011;23627;53.302;-6.362;2023-11-21T08:15:59;4.13;;;1.30;;
37787;SDS011;23627;53.302;-6.362;2023-11-21T08:18:29;3.25;;;1.00;;
37787;SDS011;23627;53.302;-6.362;2023-11-21T08:20:58;3.70;;;0.98;;
37787;SDS011;23627;53.302;-6.362;2023-11-21T08:23:24;6.35;;;1.30;;
37787;SDS011;23627;53.302;-6.362;2023-11-21T08:25:53;5.80;;;1.30;;
37787;SDS011;23627;53.302;-6.362;2023-11-21T08:28:19;3.88;;;1.02;;
37787;SDS011;23627;53.302;-6.362;2023-11-21T08:30:47;5.68;;;1.15;;
37787;SDS011;23627;53.302;-6.362;2023-11-21T08:33:13;7.97;;;1.20;;
37787;SDS011;23627;53.302;-6.362;2023-11-21T08:35:39;6.10;;;1.42;;
37787;SDS011;23627;53.302;-6.362;2023-11-21T08:38:05;6.00;;;1.00;;
37787;SDS011;23627;53.302;-6.362;2023-11-21T08:40:30;5.57;;;1.15;;
37787;SDS011;23627;53.302;-6.362;2023-11-21T08:42:57;6.13;;;1.25;;
37787;SDS011;23627;53.302;-6.362;2023-11-21T08:45:25;6.32;;;1.30;;
37787;SDS011;23627;53.302;-6.362;2023-11-21T08:47:51;7.53;;;1.35;;
37787;SDS011;23627;53.302;-6.362;2023-11-21T08:50:17;6.75;;;1.20;;
37787;SDS011;23627;53.302;-6.362;2023-11-21T08:52:44;5.78;;;1.20;;
37787;SDS011;23627;53.302;-6.362;2023-11-21T08:55:13;5.78;;;1.13;;
37787;SDS011;23627;53.302;-6.362;2023-11-21T08:57:40;5.00;;;1.15;;
37787;SDS011;23627;53.302;-6.362;2023-11-21T09:00:08;8.90;;;1.38;;
37787;SDS011;23627;53.302;-6.362;2023-11-21T09:02:42;10.45;;;1.45;;
37787;SDS011;23627;53.302;-6.362;2023-11-21T09:05:08;5.68;;;1.27;;
37787;SDS011;23627;53.302;-6.362;2023-11-21T09:07:38;6.88;;;1.10;;
37787;SDS011;23627;53.302;-6.362;2023-11-21T09:30:46;5.35;;;1.20;;
37787;SDS011;23627;53.302;-6.362;2023-11-21T09:33:21;6.93;;;1.20;;
37787;SDS011;23627;53.302;-6.362;2023-11-21T09:35:50;5.88;;;1.08;;
37787;SDS011;23627;53.302;-6.362;2023-11-21T09:38:18;4.80;;;1.40;;
37787;SDS011;23627;53.302;-6.362;2023-11-21T09:40:56;6.22;;;1.20;;
37787;SDS011;23627;53.302;-6.362;2023-11-21T09:43:52;7.25;;;1.08;;
37787;SDS011;23627;53.302;-6.362;2023-11-21T09:46:24;4.95;;;1.30;;
37787;SDS011;23627;53.302;-6.362;2023-11-21T09:52:00;6.13;;;1.17;;
37787;SDS011;23627;53.302;-6.362;2023-11-21T09:54:45;5.07;;;1.08;;
37787;SDS011;23627;53.302;-6.362;2023-11-21T09:57:17;5.35;;;1.20;;
37787;SDS011;23627;53.302;-6.362;2023-11-21T09:59:46;6.00;;;1.10;;
37787;SDS011;23627;53.302;-6.362;2023-11-21T10:05:17;5.25;;;1.30;;
37787;SDS011;23627;53.302;-6.362;2023-11-21T10:08:23;5.90;;;1.23;;
37787;SDS011;23627;53.302;-6.362;2023-11-21T10:11:05;4.40;;;1.38;;
37787;SDS011;23627;53.302;-6.362;2023-11-21T11:08:15;7.40;;;1.20;;
37787;SDS011;23627;53.302;-6.362;2023-11-21T11:10:50;4.60;;;1.02;;
37787;SDS011;23627;53.302;-6.362;2023-11-21T11:13:36;7.07;;;1.20;;
37787;SDS011;23627;53.302;-6.362;2023-11-21T11:16:35;5.72;;;1.10;;
37787;SDS011;23627;53.302;-6.362;2023-11-21T11:19:04;4.35;;;1.10;;
37787;SDS011;23627;53.302;-6.362;2023-11-21T11:24:50;4.35;;;1.15;;
37787;SDS011;23627;53.302;-6.362;2023-11-21T11:31:12;5.55;;;0.95;;
37787;SDS011;23627;53.302;-6.362;2023-11-21T11:40:47;5.60;;;1.00;;
37787;SDS011;23627;53.302;-6.362;2023-11-21T11:43:29;7.40;;;1.08;;
37787;SDS011;23627;53.302;-6.362;2023-11-21T11:46:15;4.57;;;1.05;;
37787;SDS011;23627;53.302;-6.362;2023-11-21T11:49:07;7.70;;;1.48;;
37787;SDS011;23627;53.302;-6.362;2023-11-21T11:51:41;7.38;;;1.40;;
37787;SDS011;23627;53.302;-6.362;2023-11-21T12:08:14;6.10;;;1.15;;
37787;SDS011;23627;53.302;-6.362;2023-11-21T12:11:23;4.65;;;1.23;;
37787;SDS011;23627;53.302;-6.362;2023-11-21T12:29:35;5.80;;;1.00;;
37787;SDS011;23627;53.302;-6.362;2023-11-21T12:32:05;3.42;;;0.90;;
37787;SDS011;23627;53.302;-6.362;2023-11-21T12:34:32;6.50;;;1.00;;
37787;SDS011;23627;53.302;-6.362;2023-11-21T12:36:58;5.07;;;1.15;;
37787;SDS011;23627;53.302;-6.362;2023-11-21T12:39:25;4.45;;;1.08;;
37787;SDS011;23627;53.302;-6.362;2023-11-21T12:41:51;4.45;;;0.80;;
37787;SDS011;23627;53.302;-6.362;2023-11-21T12:44:28;6.35;;;1.15;;
37787;SDS011;23627;53.302;-6.362;2023-11-21T12:56:14;8.90;;;1.38;;
37787;SDS011;23627;53.302;-6.362;2023-11-21T15:18:42;9.32;;;2.15;;
37787;SDS011;23627;53.302;-6.362;2023-11-21T17:07:09;5.68;;;2.55;;
37787;SDS011;23627;53.302;-6.362;2023-11-21T17:09:37;9.68;;;2.50;;
37787;SDS011;23627;53.302;-6.362;2023-11-21T17:12:04;10.00;;;2.70;;
37787;SDS011;23627;53.302;-6.362;2023-11-21T17:14:30;6.93;;;2.45;;
37787;SDS011;23627;53.302;-6.362;2023-11-21T17:16:57;8.32;;;2.65;;
37787;SDS011;23627;53.302;-6.362;2023-11-21T17:19:22;8.43;;;2.70;;
37787;SDS011;23627;53.302;-6.362;2023-11-21T17:21:48;7.90;;;2.40;;
37787;SDS011;23627;53.302;-6.362;2023-11-21T17:24:14;7.10;;;2.50;;
37787;SDS011;23627;53.302;-6.362;2023-11-21T17:26:43;9.70;;;2.92;;
37787;SDS011;23627;53.302;-6.362;2023-11-21T17:29:09;9.98;;;3.00;;
37787;SDS011;23627;53.302;-6.362;2023-11-21T17:31:39;6.60;;;2.58;;
37787;SDS011;23627;53.302;-6.362;2023-11-21T17:34:07;7.22;;;2.72;;
37787;SDS011;23627;53.302;-6.362;2023-11-21T17:36:33;6.63;;;2.85;;
37787;SDS011;23627;53.302;-6.362;2023-11-21T17:38:59;8.32;;;3.00;;
37787;SDS011;23627;53.302;-6.362;2023-11-21T17:41:24;6.20;;;2.47;;
37787;SDS011;23627;53.302;-6.362;2023-11-21T17:43:50;6.53;;;2.72;;
37787;SDS011;23627;53.302;-6.362;2023-11-21T17:46:19;6.20;;;2.55;;
37787;SDS011;23627;53.302;-6.362;2023-11-21T17:48:46;7.50;;;2.83;;
37787;SDS011;23627;53.302;-6.362;2023-11-21T17:51:18;6.75;;;2.67;;
37787;SDS011;23627;53.302;-6.362;2023-11-21T17:53:44;5.63;;;2.22;;
37787;SDS011;23627;53.302;-6.362;2023-11-21T17:56:17;6.53;;;2.60;;
37787;SDS011;23627;53.302;-6.362;2023-11-21T17:58:44;6.15;;;2.42;;
37787;SDS011;23627;53.302;-6.362;2023-11-21T18:07:06;6.55;;;2.80;;
37787;SDS011;23627;53.302;-6.362;2023-11-21T18:09:32;6.50;;;2.90;;
37787;SDS011;23627;53.302;-6.362;2023-11-21T18:11:59;11.70;;;5.40;;
37787;SDS011;23627;53.302;-6.362;2023-11-21T18:14:27;16.65;;;6.68;;
37787;SDS011;23627;53.302;-6.362;2023-11-21T18:16:54;11.95;;;5.15;;
37787;SDS011;23627;53.302;-6.362;2023-11-21T18:19:21;9.38;;;4.10;;
37787;SDS011;23627;53.302;-6.362;2023-11-21T18:21:47;10.25;;;4.03;;
37787;SDS011;23627;53.302;-6.362;2023-11-21T18:24:12;9.68;;;4.10;;
37787;SDS011;23627;53.302;-6.362;2023-11-21T18:26:38;8.90;;;4.03;;
37787;SDS011;23627;53.302;-6.362;2023-11-21T18:29:05;9.00;;;3.95;;
37787;SDS011;23627;53.302;-6.362;2023-11-21T18:31:30;8.63;;;3.88;;
37787;SDS011;23627;53.302;-6.362;2023-11-21T18:33:56;7.10;;;3.58;;
37787;SDS011;23627;53.302;-6.362;2023-11-21T18:36:22;8.35;;;4.10;;
37787;SDS011;23627;53.302;-6.362;2023-11-21T18:38:48;8.07;;;4.10;;
37787;SDS011;23627;53.302;-6.362;2023-11-21T18:41:21;8.70;;;3.85;;
37787;SDS011;23627;53.302;-6.362;2023-11-21T18:43:48;8.80;;;3.22;;
37787;SDS011;23627;53.302;-6.362;2023-11-21T18:46:14;7.63;;;3.92;;
37787;SDS011;23627;53.302;-6.362;2023-11-21T18:48:40;7.80;;;3.28;;
37787;SDS011;23627;53.302;-6.362;2023-11-21T18:51:09;7.50;;;3.60;;
37787;SDS011;23627;53.302;-6.362;2023-11-21T18:53:35;8.77;;;3.50;;
37787;SDS011;23627;53.302;-6.362;2023-11-21T18:56:03;8.85;;;3.40;;
37787;SDS011;23627;53.302;-6.362;2023-11-21T18:58:29;6.32;;;3.30;;
37787;SDS011;23627;53.302;-6.362;2023-11-21T19:00:55;8.57;;;3.80;;
37787;SDS011;23627;53.302;-6.362;2023-11-21T19:03:23;4.97;;;2.92;;
37787;SDS011;23627;53.302;-6.362;2023-11-21T19:05:49;7.05;;;3.25;;
37787;SDS011;23627;53.302;-6.362;2023-11-21T19:08:15;5.60;;;3.13;;
37787;SDS011;23627;53.302;-6.362;2023-11-21T19:10:40;10.23;;;3.33;;
37787;SDS011;23627;53.302;-6.362;2023-11-21T19:13:07;6.70;;;3.22;;
37787;SDS011;23627;53.302;-6.362;2023-11-21T19:15:33;6.47;;;3.20;;
37787;SDS011;23627;53.302;-6.362;2023-11-21T19:18:10;7.60;;;3.17;;
37787;SDS011;23627;53.302;-6.362;2023-11-21T19:20:38;8.07;;;3.10;;
37787;SDS011;23627;53.302;-6.362;2023-11-21T19:23:04;6.05;;;3.03;;
37787;SDS011;23627;53.302;-6.362;2023-11-21T19:25:31;7.32;;;3.60;;
37787;SDS011;23627;53.302;-6.362;2023-11-21T19:27:58;6.28;;;3.15;;
37787;SDS011;23627;53.302;-6.362;2023-11-21T19:30:24;7.72;;;2.97;;
37787;SDS011;23627;53.302;-6.362;2023-11-21T19:32:50;8.85;;;3.13;;
37787;SDS011;23627;53.302;-6.362;2023-11-21T19:35:16;6.25;;;3.00;;
37787;SDS011;23627;53.302;-6.362;2023-11-21T19:37:42;5.70;;;3.15;;
37787;SDS011;23627;53.302;-6.362;2023-11-21T19:40:08;8.95;;;3.22;;
37787;SDS011;23627;53.302;-6.362;2023-11-21T19:42:34;5.20;;;3.13;;
37787;SDS011;23627;53.302;-6.362;2023-11-21T19:45:01;9.73;;;4.30;;
37787;SDS011;23627;53.302;-6.362;2023-11-21T19:47:28;12.52;;;5.30;;
37787;SDS011;23627;53.302;-6.362;2023-11-21T19:49:55;10.10;;;4.55;;
37787;SDS011;23627;53.302;-6.362;2023-11-21T19:52:21;10.75;;;4.72;;
37787;SDS011;23627;53.302;-6.362;2023-11-21T19:54:50;10.18;;;4.93;;
37787;SDS011;23627;53.302;-6.362;2023-11-21T20:00:21;7.65;;;4.20;;
37787;SDS011;23627;53.302;-6.362;2023-11-21T20:02:47;11.40;;;5.07;;
37787;SDS011;23627;53.302;-6.362;2023-11-21T20:05:14;10.50;;;4.65;;
37787;SDS011;23627;53.302;-6.362;2023-11-21T20:07:46;11.30;;;5.50;;
37787;SDS011;23627;53.302;-6.362;2023-11-21T20:10:13;10.25;;;4.72;;
37787;SDS011;23627;53.302;-6.362;2023-11-21T20:12:39;8.95;;;4.68;;
37787;SDS011;23627;53.302;-6.362;2023-11-21T20:15:05;8.27;;;4.43;;
37787;SDS011;23627;53.302;-6.362;2023-11-21T20:17:31;9.48;;;4.93;;
37787;SDS011;23627;53.302;-6.362;2023-11-21T20:19:57;9.95;;;4.57;;
37787;SDS011;23627;53.302;-6.362;2023-11-21T20:22:23;6.07;;;4.00;;
37787;SDS011;23627;53.302;-6.362;2023-11-21T20:24:49;8.02;;;4.30;;
37787;SDS011;23627;53.302;-6.362;2023-11-21T20:27:15;7.43;;;4.10;;
37787;SDS011;23627;53.302;-6.362;2023-11-21T20:29:42;8.10;;;3.55;;
37787;SDS011;23627;53.302;-6.362;2023-11-21T20:32:09;8.60;;;3.67;;
37787;SDS011;23627;53.302;-6.362;2023-11-21T20:34:36;8.10;;;3.85;;
37787;SDS011;23627;53.302;-6.362;2023-11-21T20:37:03;6.18;;;3.03;;
37787;SDS011;23627;53.302;-6.362;2023-11-21T20:39:29;8.70;;;3.80;;
37787;SDS011;23627;53.302;-6.362;2023-11-21T20:41:55;8.05;;;3.55;;
37787;SDS011;23627;53.302;-6.362;2023-11-21T20:44:22;8.52;;;3.10;;
37787;SDS011;23627;53.302;-6.362;2023-11-21T20:46:48;6.07;;;3.20;;
37787;SDS011;23627;53.302;-6.362;2023-11-21T20:49:13;5.50;;;3.08;;
37787;SDS011;23627;53.302;-6.362;2023-11-21T20:56:48;5.38;;;2.75;;
37787;SDS011;23627;53.302;-6.362;2023-11-21T20:59:17;5.38;;;2.85;;
37787;SDS011;23627;53.302;-6.362;2023-11-21T21:01:43;5.65;;;3.20;;
37787;SDS011;23627;53.302;-6.362;2023-11-21T21:04:09;5.93;;;2.75;;
37787;SDS011;23627;53.302;-6.362;2023-11-21T21:06:40;7.05;;;2.97;;
37787;SDS011;23627;53.302;-6.362;2023-11-21T21:09:06;6.75;;;2.90;;
37787;SDS011;23627;53.302;-6.362;2023-11-21T21:11:34;5.13;;;2.75;;
37787;SDS011;23627;53.302;-6.362;2023-11-21T21:14:00;5.30;;;2.70;;
37787;SDS011;23627;53.302;-6.362;2023-11-21T21:16:26;7.68;;;2.80;;
37787;SDS011;23627;53.302;-6.362;2023-11-21T21:18:55;5.35;;;2.72;;
37787;SDS011;23627;53.302;-6.362;2023-11-21T21:21:24;9.60;;;2.90;;
37787;SDS011;23627;53.302;-6.362;2023-11-21T21:23:54;6.35;;;2.72;;
37787;SDS011;23627;53.302;-6.362;2023-11-21T21:26:20;5.72;;;2.83;;
37787;SDS011;23627;53.302;-6.362;2023-11-21T21:28:48;7.25;;;2.88;;
37787;SDS011;23627;53.302;-6.362;2023-11-21T21:31:17;5.32;;;2.95;;
37787;SDS011;23627;53.302;-6.362;2023-11-21T21:33:44;5.30;;;2.75;;
37787;SDS011;23627;53.302;-6.362;2023-11-21T21:39:34;6.70;;;2.80;;
37787;SDS011;23627;53.302;-6.362;2023-11-21T21:42:08;5.93;;;2.70;;
37787;SDS011;23627;53.302;-6.362;2023-11-21T21:44:34;8.32;;;2.88;;
37787;SDS011;23627;53.302;-6.362;2023-11-21T21:47:00;6.25;;;2.50;;
37787;SDS011;23627;53.302;-6.362;2023-11-21T21:49:26;7.10;;;2.65;;
37787;SDS011;23627;53.302;-6.362;2023-11-21T21:51:51;5.82;;;2.50;;